Anderson, Texas
Current Conditions -  °F | °C
As of 12:53 AM on Wednesday 26 Nov 2014 (Local Time) from KCLL Reporting Station
Clear Clear  
Wind Chill:   Ceiling: Unl
Heat Index:   Visibility: 10mi
Dew Point:   Wind: 7mph
Humidity: 63%   Direction: 180°S
Pressure: 30.19"   Gusts: NA
Location:  30.49°N, 95.99°W
Report Text: KCLL 260653Z AUTO 18006KT 10SM CLR 07/01 A3019 RMK AO2 SLP222 T00720006
Loading
Personal Weather Stations






























Interactive Weather Map New forecast layout! Learn more

10-Day Weather Forecast

Advertisements
Track Severe Weather on mobile